createdAt,value
2018-09-25T00:00:35.201Z,7.59
2018-09-25T00:03:09.104Z,7.57
2018-09-25T00:05:43.336Z,7.59
2018-09-25T00:08:17.164Z,7.57
2018-09-25T00:10:51.057Z,7.50
2018-09-25T00:13:24.944Z,7.48
2018-09-25T00:15:58.675Z,7.45
2018-09-25T00:18:32.744Z,7.46
2018-09-25T00:21:06.593Z,7.52
2018-09-25T00:23:40.537Z,7.51
2018-09-25T00:26:14.422Z,7.44
2018-09-25T00:28:48.413Z,7.49
2018-09-25T00:31:22.137Z,7.45
2018-09-25T00:33:56.014Z,7.53
2018-09-25T00:36:30.036Z,7.56
2018-09-25T00:39:04.006Z,7.46
2018-09-25T00:41:37.846Z,7.51
2018-09-25T00:44:11.815Z,7.50
2018-09-25T00:46:45.701Z,7.48
2018-09-25T00:49:19.475Z,7.55
2018-09-25T00:51:53.368Z,7.54
2018-09-25T00:54:27.360Z,7.53
2018-09-25T00:57:01.297Z,7.53
2018-09-25T00:59:35.111Z,7.56
2018-09-25T01:02:09.076Z,7.56
2018-09-25T01:04:43.016Z,7.57
2018-09-25T01:07:16.914Z,7.53
2018-09-25T01:09:50.800Z,7.50
2018-09-25T01:12:24.715Z,7.48
2018-09-25T01:14:58.552Z,7.51
2018-09-25T01:17:32.518Z,7.51
2018-09-25T01:20:06.283Z,7.55
2018-09-25T01:22:40.285Z,7.52
2018-09-25T01:25:14.146Z,7.47
2018-09-25T01:27:48.229Z,7.41
2018-09-25T01:30:22.237Z,7.38
2018-09-25T01:32:56.000Z,7.38
2018-09-25T01:35:29.908Z,7.38
2018-09-25T01:38:03.947Z,7.31
2018-09-25T01:40:37.749Z,7.31
2018-09-25T01:43:11.728Z,7.27
2018-09-25T01:45:45.633Z,7.18
2018-09-25T01:48:19.612Z,7.04
2018-09-25T01:50:53.514Z,6.99
2018-09-25T01:53:27.444Z,6.98
2018-09-25T01:56:01.295Z,6.90
2018-09-25T01:58:35.357Z,6.87
2018-09-25T02:01:09.213Z,6.82
2018-09-25T02:03:43.102Z,6.82
2018-09-25T02:06:16.969Z,6.83
2018-09-25T02:08:50.828Z,6.78
2018-09-25T02:11:24.672Z,6.77
2018-09-25T02:13:58.654Z,6.72
2018-09-25T02:16:32.634Z,6.67
2018-09-25T02:19:06.595Z,6.66
2018-09-25T02:21:40.632Z,6.65
2018-09-25T02:24:14.596Z,6.65
2018-09-25T02:26:48.549Z,6.63
2018-09-25T02:29:22.411Z,6.65
2018-09-25T02:31:56.320Z,6.62
2018-09-25T02:34:30.140Z,6.58
2018-09-25T02:37:04.075Z,6.58
2018-09-25T02:39:37.982Z,6.58
2018-09-25T02:42:11.783Z,6.60
2018-09-25T02:44:45.599Z,6.58
2018-09-25T02:47:19.615Z,6.54
2018-09-25T02:49:53.487Z,6.53
2018-09-25T02:52:27.360Z,6.54
2018-09-25T02:55:01.177Z,6.52
2018-09-25T02:57:35.168Z,6.50
2018-09-25T03:00:12.545Z,6.48
2018-09-25T03:02:46.412Z,6.45
2018-09-25T03:05:20.228Z,6.46
2018-09-25T03:07:54.106Z,6.47
2018-09-25T03:10:27.977Z,6.45
2018-09-25T03:13:01.941Z,6.45
2018-09-25T03:15:35.828Z,6.45
2018-09-25T03:18:09.781Z,6.43
2018-09-25T03:20:43.612Z,6.45
2018-09-25T03:23:17.456Z,6.44
2018-09-25T03:25:51.389Z,6.43
2018-09-25T03:28:25.202Z,6.44
2018-09-25T03:30:58.902Z,6.46
2018-09-25T03:33:32.775Z,6.43
2018-09-25T03:36:06.636Z,6.45
2018-09-25T03:38:40.500Z,6.42
2018-09-25T03:41:14.373Z,6.41
2018-09-25T03:43:48.324Z,6.40
2018-09-25T03:46:22.276Z,6.37
2018-09-25T03:48:56.048Z,6.38
2018-09-25T03:51:29.935Z,6.33
2018-09-25T03:54:03.825Z,6.31
2018-09-25T03:56:37.768Z,6.28
2018-09-25T03:59:11.637Z,6.31
2018-09-25T04:01:45.483Z,6.30
2018-09-25T04:04:19.309Z,6.29
2018-09-25T04:06:53.080Z,6.28
2018-09-25T04:09:26.975Z,6.28
2018-09-25T04:12:00.860Z,6.27
2018-09-25T04:14:34.910Z,6.23
2018-09-25T04:17:08.775Z,6.27
2018-09-25T04:19:42.787Z,6.28
2018-09-25T04:22:16.580Z,6.24
2018-09-25T04:24:50.500Z,6.27
2018-09-25T04:27:24.313Z,6.27
2018-09-25T04:29:58.320Z,6.30
2018-09-25T04:32:32.290Z,6.32
2018-09-25T04:35:06.091Z,6.27
2018-09-25T04:37:40.016Z,6.33
2018-09-25T04:40:14.041Z,6.34
2018-09-25T04:42:48.464Z,6.37
2018-09-25T04:45:22.376Z,6.36
2018-09-25T04:47:56.315Z,6.36
2018-09-25T04:50:30.236Z,6.37
2018-09-25T04:53:04.065Z,6.39
2018-09-25T04:55:37.882Z,6.39
2018-09-25T04:58:12.064Z,6.42
2018-09-25T05:00:45.863Z,6.46
2018-09-25T05:03:19.809Z,6.44
2018-09-25T05:05:53.704Z,6.50
2018-09-25T05:08:27.709Z,6.48
2018-09-25T05:11:01.704Z,6.47
2018-09-25T05:13:35.628Z,6.51
2018-09-25T05:16:09.420Z,6.53
2018-09-25T05:18:43.283Z,6.52
2018-09-25T05:21:17.281Z,6.54
2018-09-25T05:23:51.188Z,6.59
2018-09-25T05:26:25.064Z,6.64
2018-09-25T05:28:58.944Z,6.65
2018-09-25T05:31:32.731Z,6.68
2018-09-25T05:34:06.766Z,6.69
2018-09-25T05:36:40.739Z,6.79
2018-09-25T05:39:14.988Z,6.89
2018-09-25T05:41:49.209Z,6.85
2018-09-25T05:44:23.061Z,6.88
2018-09-25T05:46:57.151Z,6.91
2018-09-25T05:49:31.073Z,6.94
2018-09-25T05:52:05.005Z,6.96
2018-09-25T05:54:38.833Z,7.00
2018-09-25T05:57:12.640Z,6.99
2018-09-25T05:59:46.549Z,6.96
2018-09-25T06:02:20.387Z,7.04
2018-09-25T06:04:54.056Z,7.13
2018-09-25T06:07:27.845Z,7.13
2018-09-25T06:10:01.740Z,7.15
2018-09-25T06:12:35.555Z,7.27
2018-09-25T06:15:10.303Z,7.31
2018-09-25T06:17:44.189Z,7.24
2018-09-25T06:20:17.999Z,7.30
2018-09-25T06:22:52.006Z,7.30
2018-09-25T06:25:25.819Z,7.35
2018-09-25T06:27:59.750Z,7.41
2018-09-25T06:30:33.592Z,7.53
2018-09-25T06:33:07.933Z,7.46
2018-09-25T06:35:41.761Z,7.45
2018-09-25T06:38:15.672Z,7.42
2018-09-25T06:40:49.658Z,7.45
2018-09-25T06:43:23.432Z,7.67
2018-09-25T06:45:57.253Z,7.81
2018-09-25T06:48:31.123Z,7.95
2018-09-25T06:51:04.972Z,8.03
2018-09-25T06:53:39.919Z,7.99
2018-09-25T06:56:13.792Z,7.98
2018-09-25T06:58:49.442Z,7.99
2018-09-25T07:01:23.322Z,8.19
2018-09-25T07:03:57.196Z,8.44
2018-09-25T07:06:31.209Z,8.50
2018-09-25T07:09:05.191Z,8.47
2018-09-25T07:11:39.112Z,8.46
2018-09-25T07:14:12.904Z,8.64
2018-09-25T07:16:46.784Z,8.71
2018-09-25T07:19:20.761Z,8.73
2018-09-25T07:21:54.643Z,8.80
2018-09-25T07:24:28.455Z,8.92
2018-09-25T07:27:02.404Z,8.86
2018-09-25T07:29:36.210Z,8.76
2018-09-25T07:32:10.148Z,8.80
2018-09-25T07:34:43.990Z,8.82
2018-09-25T07:37:17.936Z,8.67
2018-09-25T07:39:51.921Z,8.65
2018-09-25T07:42:25.745Z,8.69
2018-09-25T07:44:59.688Z,8.67
2018-09-25T07:47:33.623Z,9.02
2018-09-25T07:50:14.426Z,9.21
2018-09-25T07:52:48.248Z,9.21
2018-09-25T07:55:22.227Z,9.02
2018-09-25T07:57:56.104Z,9.12
2018-09-25T08:00:30.166Z,9.10
2018-09-25T08:03:04.050Z,8.94
2018-09-25T08:05:37.969Z,8.97
2018-09-25T08:08:11.983Z,9.08
2018-09-25T08:10:45.804Z,9.28
2018-09-25T08:13:19.657Z,9.37
2018-09-25T08:15:53.805Z,9.57
2018-09-25T08:18:27.572Z,9.81
2018-09-25T08:21:01.520Z,9.94
2018-09-25T08:23:35.501Z,9.85
2018-09-25T08:26:09.453Z,9.81
2018-09-25T08:28:43.272Z,9.87
2018-09-25T08:31:17.144Z,9.85
2018-09-25T08:33:51.095Z,10.10
2018-09-25T08:36:25.106Z,10.17
2018-09-25T08:38:59.255Z,10.31
2018-09-25T08:41:33.163Z,10.66
2018-09-25T08:44:07.180Z,10.88
2018-09-25T08:46:41.020Z,10.96
2018-09-25T08:49:15.284Z,11.04
2018-09-25T08:51:49.140Z,11.13
2018-09-25T08:54:23.090Z,11.05
2018-09-25T08:56:56.973Z,11.12
2018-09-25T08:59:30.885Z,11.44
2018-09-25T09:02:04.759Z,11.51
2018-09-25T09:04:38.660Z,11.48
2018-09-25T09:07:12.744Z,11.43
2018-09-25T09:09:46.599Z,11.28
2018-09-25T09:12:20.392Z,11.18
2018-09-25T09:14:54.470Z,10.96
2018-09-25T09:17:28.352Z,11.30
2018-09-25T09:20:02.784Z,11.56
2018-09-25T09:22:36.664Z,11.58
2018-09-25T09:25:10.887Z,11.52
2018-09-25T09:27:44.801Z,11.68
2018-09-25T09:30:18.847Z,11.66
2018-09-25T09:32:52.695Z,11.40
2018-09-25T09:35:26.653Z,11.67
2018-09-25T09:38:00.438Z,11.98
2018-09-25T09:40:34.381Z,12.16
2018-09-25T09:43:08.326Z,12.13
2018-09-25T09:45:42.289Z,12.27
2018-09-25T09:48:16.244Z,12.04
2018-09-25T09:50:50.213Z,12.20
2018-09-25T09:53:24.116Z,12.32
2018-09-25T09:55:57.990Z,12.75
2018-09-25T09:58:31.955Z,13.29
2018-09-25T10:01:05.859Z,13.87
2018-09-25T10:03:39.873Z,14.16
2018-09-25T10:06:13.821Z,14.59
2018-09-25T10:08:47.670Z,15.12
2018-09-25T10:11:21.597Z,15.65
2018-09-25T10:13:55.625Z,15.10
2018-09-25T10:16:29.553Z,15.00
2018-09-25T10:19:03.416Z,15.59
2018-09-25T10:21:37.357Z,15.96
2018-09-25T10:24:11.290Z,15.78
2018-09-25T10:26:45.450Z,15.76
2018-09-25T10:29:19.397Z,15.88
2018-09-25T10:31:53.135Z,15.51
2018-09-25T10:34:26.961Z,15.22
2018-09-25T10:37:00.801Z,15.57
2018-09-25T10:39:34.809Z,15.71
2018-09-25T10:42:08.731Z,15.51
2018-09-25T10:44:42.656Z,15.58
2018-09-25T10:47:16.694Z,15.41
2018-09-25T10:49:50.660Z,15.76
2018-09-25T10:52:24.432Z,16.09
2018-09-25T10:54:58.397Z,16.42
2018-09-25T10:57:32.285Z,15.77
2018-09-25T11:00:06.339Z,15.73
2018-09-25T11:02:40.224Z,16.01
2018-09-25T11:05:14.244Z,16.95
2018-09-25T11:07:48.290Z,17.09
2018-09-25T11:10:22.313Z,17.67
2018-09-25T11:12:56.207Z,18.04
2018-09-25T11:15:30.297Z,17.90
2018-09-25T11:18:04.329Z,17.42
2018-09-25T11:20:38.340Z,17.06
2018-09-25T11:23:12.652Z,17.41
2018-09-25T11:25:46.443Z,17.53
2018-09-25T11:28:20.367Z,18.07
2018-09-25T11:30:54.234Z,18.69
2018-09-25T11:33:28.152Z,19.08
2018-09-25T11:36:02.104Z,19.33
2018-09-25T11:38:35.976Z,19.51
2018-09-25T11:41:09.998Z,19.83
2018-09-25T11:43:43.944Z,19.25
2018-09-25T11:46:17.735Z,19.59
2018-09-25T11:48:51.508Z,19.88
2018-09-25T11:51:25.324Z,20.31
2018-09-25T11:53:59.251Z,20.65
2018-09-25T11:56:33.080Z,20.56
2018-09-25T11:59:07.073Z,19.84
2018-09-25T12:01:40.903Z,19.06
2018-09-25T12:04:14.715Z,18.23
2018-09-25T12:06:48.674Z,17.43
2018-09-25T12:09:22.520Z,17.18
2018-09-25T12:11:56.388Z,17.45
2018-09-25T12:14:30.278Z,17.71
2018-09-25T12:17:04.128Z,18.38
2018-09-25T12:19:37.998Z,18.94
2018-09-25T12:22:11.935Z,18.14
2018-09-25T12:24:45.925Z,17.79
2018-09-25T12:27:19.843Z,17.83
2018-09-25T12:29:53.729Z,17.79
2018-09-25T12:32:27.702Z,17.71
2018-09-25T12:35:01.694Z,17.82
2018-09-25T12:37:35.593Z,17.45
2018-09-25T12:40:09.516Z,16.74
2018-09-25T12:42:43.434Z,16.36
2018-09-25T12:45:17.231Z,16.18
2018-09-25T12:47:51.274Z,15.91
2018-09-25T12:50:25.202Z,16.13
2018-09-25T12:52:59.069Z,16.34
2018-09-25T12:55:33.275Z,16.36
2018-09-25T12:58:07.160Z,17.31
2018-09-25T13:00:41.000Z,18.66
2018-09-25T13:03:14.870Z,18.97
2018-09-25T13:05:48.769Z,18.70
2018-09-25T13:08:22.603Z,18.25
2018-09-25T13:10:56.673Z,17.74
2018-09-25T13:13:30.609Z,17.32
2018-09-25T13:16:04.561Z,16.92
2018-09-25T13:18:38.343Z,16.57
2018-09-25T13:21:12.194Z,16.42
2018-09-25T13:23:46.268Z,16.64
2018-09-25T13:26:20.012Z,17.16
2018-09-25T13:28:53.949Z,16.96
2018-09-25T13:31:27.811Z,16.80
2018-09-25T13:34:01.706Z,17.13
2018-09-25T13:36:35.558Z,17.03
2018-09-25T13:39:09.456Z,17.02
2018-09-25T13:41:43.332Z,16.51
2018-09-25T13:44:17.304Z,16.77
2018-09-25T13:46:51.212Z,16.74
2018-09-25T13:49:25.238Z,16.55
2018-09-25T13:51:59.183Z,16.33
2018-09-25T13:54:33.093Z,15.85
2018-09-25T13:57:07.028Z,15.59
2018-09-25T13:59:41.061Z,15.63
2018-09-25T14:02:15.710Z,15.52
2018-09-25T14:04:50.078Z,15.52
2018-09-25T14:07:23.959Z,15.39
2018-09-25T14:09:57.842Z,15.36
2018-09-25T14:12:31.780Z,15.30
2018-09-25T14:15:05.825Z,15.19
2018-09-25T14:17:39.978Z,15.14
2018-09-25T14:20:13.966Z,15.04
2018-09-25T14:22:47.787Z,15.02
2018-09-25T14:25:21.763Z,14.91
2018-09-25T14:27:55.707Z,14.68
2018-09-25T14:30:29.456Z,14.53
2018-09-25T14:33:03.312Z,14.43
2018-09-25T14:35:37.437Z,14.30
2018-09-25T14:38:11.430Z,14.31
2018-09-25T14:40:45.260Z,14.27
2018-09-25T14:43:19.114Z,14.25
2018-09-25T14:45:53.110Z,14.23
2018-09-25T14:48:27.012Z,14.18
2018-09-25T14:51:00.987Z,14.11
2018-09-25T14:53:34.934Z,13.96
2018-09-25T14:56:08.889Z,13.94
2018-09-25T14:58:42.908Z,13.82
2018-09-25T15:01:16.868Z,13.75
2018-09-25T15:03:50.866Z,13.72
2018-09-25T15:06:24.749Z,13.67
2018-09-25T15:08:58.769Z,13.71
2018-09-25T15:11:32.732Z,13.62
2018-09-25T15:14:06.751Z,13.63
2018-09-25T15:16:40.575Z,13.55
2018-09-25T15:19:14.481Z,13.56
2018-09-25T15:21:48.694Z,13.47
2018-09-25T15:24:22.491Z,13.47
2018-09-25T15:26:56.314Z,13.37
2018-09-25T15:29:30.295Z,13.31
2018-09-25T15:32:04.372Z,13.25
2018-09-25T15:34:38.475Z,13.22
2018-09-25T15:37:12.240Z,13.15
2018-09-25T15:39:46.111Z,13.13
2018-09-25T15:42:20.013Z,13.14
2018-09-25T15:44:53.975Z,13.15
2018-09-25T15:47:27.893Z,13.02
2018-09-25T15:50:01.875Z,13.00
2018-09-25T15:52:35.774Z,12.94
2018-09-25T15:55:09.577Z,12.99
2018-09-25T15:57:43.490Z,13.04
2018-09-25T16:00:17.479Z,13.26
2018-09-25T16:02:51.426Z,13.43
2018-09-25T16:05:25.360Z,13.52
2018-09-25T16:10:45.829Z,13.25
2018-09-25T16:13:19.997Z,13.02
2018-09-25T16:15:53.969Z,12.99
2018-09-25T16:18:27.968Z,12.77
2018-09-25T16:21:01.879Z,12.72
2018-09-25T16:23:35.787Z,12.62
2018-09-25T16:26:09.597Z,12.43
2018-09-25T16:28:43.609Z,12.39
2018-09-25T16:31:17.517Z,12.37
2018-09-25T16:33:51.463Z,12.38
2018-09-25T16:36:25.432Z,12.37
2018-09-25T16:38:59.340Z,12.35
2018-09-25T16:41:33.307Z,12.24
2018-09-25T16:44:07.145Z,12.17
2018-09-25T16:46:41.041Z,12.12
2018-09-25T16:49:14.809Z,11.97
2018-09-25T16:51:48.791Z,11.92
2018-09-25T16:54:22.657Z,11.90
2018-09-25T16:56:56.697Z,11.96
2018-09-25T16:59:30.655Z,11.96
2018-09-25T17:02:04.630Z,11.85
2018-09-25T17:04:38.499Z,11.81
2018-09-25T17:07:12.461Z,11.82
2018-09-25T17:09:46.369Z,11.70
2018-09-25T17:12:20.145Z,11.60
2018-09-25T17:14:54.141Z,11.50
2018-09-25T17:17:27.965Z,11.44
2018-09-25T17:20:01.913Z,11.47
2018-09-25T17:22:35.739Z,11.45
2018-09-25T17:25:09.812Z,11.40
2018-09-25T17:27:43.745Z,11.40
2018-09-25T17:30:17.556Z,11.32
2018-09-25T17:32:51.420Z,11.30
2018-09-25T17:35:25.374Z,11.27
2018-09-25T17:37:59.487Z,11.20
2018-09-25T17:40:33.500Z,11.16
2018-09-25T17:43:07.443Z,11.13
2018-09-25T17:45:41.371Z,11.10
2018-09-25T17:48:15.289Z,11.12
2018-09-25T17:50:49.223Z,11.04
2018-09-25T17:53:23.117Z,11.00
2018-09-25T17:55:57.019Z,10.95
2018-09-25T17:58:31.031Z,10.83
2018-09-25T18:01:04.855Z,10.86
2018-09-25T18:03:38.852Z,10.88
2018-09-25T18:06:12.733Z,10.85
2018-09-25T18:08:46.745Z,10.82
2018-09-25T18:11:20.660Z,10.82
2018-09-25T18:13:54.600Z,10.87
2018-09-25T18:16:28.406Z,10.84
2018-09-25T18:19:02.360Z,10.92
2018-09-25T18:21:36.305Z,10.89
2018-09-25T18:24:10.253Z,10.95
2018-09-25T18:26:44.190Z,11.07
2018-09-25T18:29:18.077Z,11.10
2018-09-25T18:31:51.947Z,11.15
2018-09-25T18:34:26.005Z,11.10
2018-09-25T18:36:59.844Z,11.01
2018-09-25T18:39:33.840Z,10.87
2018-09-25T18:42:07.912Z,10.85
2018-09-25T18:44:41.824Z,10.88
2018-09-25T18:47:15.673Z,10.71
2018-09-25T18:49:49.684Z,10.55
2018-09-25T18:52:23.593Z,10.48
2018-09-25T18:54:57.918Z,10.55
2018-09-25T18:57:32.060Z,10.67
2018-09-25T19:00:05.981Z,10.63
2018-09-25T19:02:39.870Z,10.68
2018-09-25T19:05:13.929Z,10.64
2018-09-25T19:07:47.776Z,10.60
2018-09-25T19:10:21.773Z,10.74
2018-09-25T19:12:55.640Z,10.75
2018-09-25T19:15:29.566Z,10.73
2018-09-25T19:18:04.551Z,10.70
2018-09-25T19:20:38.472Z,10.65
2018-09-25T19:23:12.413Z,10.59
2018-09-25T19:25:46.300Z,10.52
2018-09-25T19:28:20.178Z,10.51
2018-09-25T19:30:53.917Z,10.53
2018-09-25T19:33:27.792Z,10.54
2018-09-25T19:36:01.829Z,10.53
2018-09-25T19:38:35.773Z,10.57
2018-09-25T19:41:09.647Z,10.54
2018-09-25T19:43:43.739Z,10.54
2018-09-25T19:46:17.720Z,10.46
2018-09-25T19:48:51.538Z,10.43
2018-09-25T19:51:25.485Z,10.36
2018-09-25T19:53:59.384Z,10.35
2018-09-25T19:56:33.313Z,10.31
2018-09-25T19:59:07.232Z,10.17
2018-09-25T20:01:41.406Z,10.10
2018-09-25T20:04:15.238Z,10.13
2018-09-25T20:06:49.032Z,10.12
2018-09-25T20:09:23.038Z,10.13
2018-09-25T20:11:56.652Z,10.07
2018-09-25T20:14:30.602Z,9.86
2018-09-25T20:17:04.474Z,10.00
2018-09-25T20:19:38.538Z,10.07
2018-09-25T20:22:13.431Z,9.95
2018-09-25T20:24:47.368Z,10.06
2018-09-25T20:27:21.296Z,10.13
2018-09-25T20:29:55.152Z,10.03
2018-09-25T20:32:29.212Z,9.91
2018-09-25T20:35:03.065Z,9.96
2018-09-25T20:37:36.832Z,9.95
2018-09-25T20:40:11.383Z,9.86
2018-09-25T20:42:45.220Z,9.84
2018-09-25T20:45:19.096Z,9.74
2018-09-25T20:47:52.923Z,9.73
2018-09-25T20:50:26.968Z,9.71
2018-09-25T20:53:00.944Z,9.69
2018-09-25T20:55:34.901Z,9.69
2018-09-25T20:58:08.769Z,9.68
2018-09-25T21:00:42.948Z,9.69
2018-09-25T21:03:16.742Z,9.58
2018-09-25T21:05:50.602Z,9.44
2018-09-25T21:08:24.555Z,9.46
2018-09-25T21:10:58.421Z,9.51
2018-09-25T21:13:32.396Z,9.51
2018-09-25T21:16:06.413Z,9.50
2018-09-25T21:18:40.425Z,9.39
2018-09-25T21:21:14.303Z,9.37
2018-09-25T21:23:48.154Z,9.21
2018-09-25T21:26:22.114Z,9.13
2018-09-25T21:28:56.069Z,9.10
2018-09-25T21:31:29.837Z,9.11
2018-09-25T21:34:03.764Z,9.07
2018-09-25T21:36:37.729Z,9.05
2018-09-25T21:39:14.327Z,9.03
2018-09-25T21:41:48.690Z,9.03
2018-09-25T21:44:22.683Z,9.03
2018-09-25T21:46:56.702Z,9.00
2018-09-25T21:49:30.651Z,9.02
2018-09-25T21:52:04.537Z,8.87
2018-09-25T21:54:38.383Z,8.83
2018-09-25T21:57:12.405Z,8.77
2018-09-25T21:59:46.176Z,8.66
2018-09-25T22:02:20.100Z,8.62
2018-09-25T22:04:53.974Z,8.71
2018-09-25T22:07:27.943Z,8.75
2018-09-25T22:10:01.883Z,8.77
2018-09-25T22:12:35.767Z,8.76
2018-09-25T22:15:09.904Z,8.75
2018-09-25T22:17:43.623Z,8.72
2018-09-25T22:20:17.541Z,8.68
2018-09-25T22:22:52.283Z,8.67
2018-09-25T22:25:26.228Z,8.69
2018-09-25T22:28:00.092Z,8.67
2018-09-25T22:30:33.960Z,8.61
2018-09-25T22:33:08.031Z,8.64
2018-09-25T22:35:42.224Z,8.47
2018-09-25T22:38:16.142Z,8.46
2018-09-25T22:40:50.252Z,8.41
2018-09-25T22:43:24.400Z,8.37
2018-09-25T22:45:58.310Z,8.29
2018-09-25T22:48:32.257Z,8.25
2018-09-25T22:51:06.152Z,8.29
2018-09-25T22:53:40.078Z,8.32
2018-09-25T22:56:14.056Z,8.36
2018-09-25T22:58:47.796Z,8.23
2018-09-25T23:01:21.719Z,8.07
2018-09-25T23:03:55.576Z,8.22
2018-09-25T23:06:29.540Z,8.28
2018-09-25T23:09:03.533Z,8.27
2018-09-25T23:11:37.448Z,8.25
2018-09-25T23:14:11.463Z,8.21
2018-09-25T23:16:45.522Z,8.11
2018-09-25T23:19:19.434Z,8.07
2018-09-25T23:21:53.545Z,8.11
2018-09-25T23:24:27.412Z,8.13
2018-09-25T23:27:01.504Z,8.21
2018-09-25T23:29:35.368Z,8.18
2018-09-25T23:32:09.315Z,8.23
2018-09-25T23:34:43.537Z,8.18
2018-09-25T23:37:17.496Z,8.05
2018-09-25T23:40:07.882Z,8.09
2018-09-25T23:42:41.087Z,8.02
2018-09-25T23:45:22.107Z,8.02
2018-09-25T23:48:00.889Z,8.02
2018-09-25T23:50:38.361Z,8.00
2018-09-25T23:53:11.757Z,8.00
2018-09-25T23:55:44.676Z,7.95
2018-09-25T23:58:16.984Z,7.98
